METAR Data
IDs: Format: Raw Decoded Include TAF

Data at: 0449 UTC 21 Sep 2018

KCRG 210353Z AUTO 11007KT 10SM FEW033 27/22 A3011 RMK AO2 SLP196 T02720217
KCRG 210253Z AUTO 11005KT 10SM CLR 27/22 A3011 RMK AO2 SLP197 T02720222 51017
KCRG 210153Z 10006KT 10SM FEW030 28/22 A3010 RMK AO2 SLP193 T02780222
KCRG 210053Z 09009KT 10SM FEW029 28/22 A3008 RMK AO2 SLP186 T02780222
KCRG 202353Z 08005KT 10SM SCT028 SCT039 28/23 A3006 RMK AO2 SLP180 T02780233 10317 20278 53005
KCRG 202253Z 08007KT 10SM FEW027 28/23 A3006 RMK AO2 SLP177 T02830228
KCRG 202153Z 08011KT 10SM FEW029 FEW035 29/23 A3005 RMK AO2 SLP176 T02940228
KCRG 202053Z 08011KT 10SM SCT032 SCT040 31/23 A3005 RMK AO2 SLP175 T03060228 56010
KCRG 201953Z 08012KT 10SM FEW027 SCT033 30/23 A3005 RMK AO2 SLP175 T03000233
KCRG 201853Z 08010KT 10SM FEW028 31/24 A3006 RMK AO2 SLP178 T03110239
KCRG 201753Z 07012G19KT 10SM CLR 31/24 A3008 RMK AO2 SLP184 T03110239 10317 20244 58007 $
KCRG 201653Z 07009KT 10SM FEW027 FEW037 SCT065 31/24 A3010 RMK AO2 SLP191 T03060239 $
KCRG 201553Z 05010KT 10SM FEW028 SCT065 31/23 A3011 RMK AO2 SLP194 T03060233 $
KCRG 201453Z 08009KT 10SM CLR 31/24 A3010 RMK AO2 SLP192 T03060239 53019 $
KCRG 201353Z 07008KT 10SM CLR 29/25 A3008 RMK AO2 SLP185 T02940250
KCRG 201253Z 02004KT 10SM CLR 28/26 A3006 RMK AO2 SLP179 T02780256
KCRG 201153Z 00000KT 9SM CLR 24/23 A3004 RMK AO2 SLP173 70077 T02440233 10244 20228 53021
KCRG 201053Z 00000KT 8SM CLR 23/23 A3002 RMK AO2 SLP164 T02330228
KCRG 200953Z AUTO 00000KT 9SM CLR 23/22 A3000 RMK AO2 SLP159 T02280222
KCRG 200853Z AUTO 00000KT 9SM CLR 23/23 A2998 RMK AO2 SLP152 T02330228 55005
KCRG 200753Z AUTO 00000KT 9SM CLR 23/23 A2998 RMK AO2 SLP152 T02330228
KCRG 200653Z AUTO 00000KT 10SM CLR 23/23 A2999 RMK AO2 SLP154 T02330228
KCRG 200553Z AUTO 00000KT 10SM CLR 23/23 A3000 RMK AO2 SLP158 T02330228 10250 20233 58001
KCRG 200453Z AUTO 20003KT 10SM CLR 23/23 A3000 RMK AO2 SLP159 T02330228
KCRG 200353Z AUTO 00000KT 10SM CLR 24/23 A3000 RMK AO2 SLP159 T02390228
KCRG 200253Z AUTO 00000KT 10SM CLR 24/23 A3000 RMK AO2 SLP158 T02390228 51019
KCRG 200153Z 00000KT 10SM BKN110 24/22 A2999 RMK AO2 SLP155 T02440222
KCRG 200053Z 00000KT 10SM CLR 24/23 A2996 RMK AO2 SLP146 T02440233
KCRG 192353Z 00000KT 10SM BKN110 24/23 A2994 RMK AO2 SLP139 60077 T02440228 10350 20244 50017
KCRG 192306Z 34009KT 10SM FEW085 FEW120 24/22 A2997 RMK AO2 T02440222
KCRG 192253Z 34013G21KT 10SM VCTS SCT090 SCT120 24/22 A2997 RMK AO2 PK WND 22031/2155 WSHFT 2238 LTG DSNT N AND NW RAE23 TSE15 SLP147 P0030 T02440222
KCRG 192222Z 00000KT 10SM VCTS -RA SCT012 SCT080 OVC100 26/22 A2993 RMK AO2 PK WND 22031/2155 WSHFT 2146 LTG DSNT W-N TSE15 P0030 T02560222
KCRG 192215Z 28003KT 5SM VCTS -RA BKN016 BKN080 OVC110 26/22 A2993 RMK AO2 PK WND 22031/2155 WSHFT 2146 LTG DSNT W-N TSE15 P0030 T02560217
KCRG 192208Z 14005G19KT 3SM TSRA SCT013 BKN041 OVC110 26/21 A2993 RMK AO2 PK WND 22031/2155 WSHFT 2146 LTG DSNT NW P0030 T02610211
KCRG 192206Z 14008G19KT 3/4SM +TSRA BKN013 BKN041 OVC110 26/21 A2993 RMK AO2 PK WND 22031/2155 WSHFT 2146 LTG DSNT NW P0030 T02610211
KCRG 192200Z 17015G31KT 1/4SM +TSRA FG BKN015 OVC036 25/23 A2993 RMK AO2 PK WND 22031/2155 WSHFT 2146 LTG DSNT NW P0028 T02500228
KCRG 192153Z 24021G26KT 1/2SM +TSRA FG BKN021 BKN030 OVC042 24/23 A2994 RMK AO2 PK WND 28029/2133 WSHFT 2127 LTG DSNT SW-N RAB38 TSB02 SLP138 P0047 T02440228
KCRG 192147Z 27019G25KT 1/2SM +TSRA FG BKN030 OVC042 25/23 A2994 RMK AO2 PK WND 28029/2133 WSHFT 2127 LTG DSNT SW-N RAB38 TSB02 P0023
KCRG 192142Z 26016G29KT 1 3/4SM +TSRA BR SCT032 BKN040 OVC055 26/23 A2994 RMK AO2 PK WND 28029/2133 WSHFT 2127 LTG DSNT W-N RAB38 TSB02 P0007 T02560233
KCRG 192108Z 15007KT 10SM TS SCT060 31/24 A2990 RMK AO2 LTG DSNT SW TSB02 T03060244
KCRG 192053Z 11008KT 10SM VCTS CLR 31/24 A2989 RMK AO2 LTG DSNT SW SLP122 T03110244 56009
KCRG 192048Z 12008KT 10SM VCTS CLR 31/24 A2990 RMK AO2
KCRG 191953Z 09009KT 10SM FEW041 FEW060 33/25 A2990 RMK AO2 LTG DSNT S SLP126 T03280250
KCRG 191853Z VRB04KT 10SM CLR 35/23 A2992 RMK AO2 SLP131 T03500228
KCRG 191753Z 31007KT 10SM CLR 34/23 A2995 RMK AO2 SLP140 T03390228
KCRG 191653Z 33005KT 10SM CLR 33/24 A2997 RMK AO2 SLP146 T03280239